sensor_id;sensor_type;location;lat;lon;timestamp;pressure;altitude;pressure_sealevel;temperature;humidity
42125;BME280;27787;44.594;11.046;2023-03-23T00:01:08;100966.09;;;13.79;76.73
42125;BME280;27787;44.594;11.046;2023-03-23T00:03:57;100963.47;;;13.63;77.85
42125;BME280;27787;44.594;11.046;2023-03-23T00:06:42;100967.91;;;13.51;78.70
42125;BME280;27787;44.594;11.046;2023-03-23T00:09:26;100962.63;;;13.42;78.98
42125;BME280;27787;44.594;11.046;2023-03-23T00:12:11;100959.09;;;13.42;79.38
42125;BME280;27787;44.594;11.046;2023-03-23T00:15:00;100962.63;;;13.36;79.41
42125;BME280;27787;44.594;11.046;2023-03-23T00:17:45;100965.31;;;13.30;79.78
42125;BME280;27787;44.594;11.046;2023-03-23T00:20:29;100967.94;;;13.19;80.65
42125;BME280;27787;44.594;11.046;2023-03-23T00:23:25;100965.25;;;13.10;80.94
42125;BME280;27787;44.594;11.046;2023-03-23T00:26:09;100967.03;;;13.05;81.57
42125;BME280;27787;44.594;11.046;2023-03-23T00:28:54;100973.19;;;13.01;82.05
42125;BME280;27787;44.594;11.046;2023-03-23T00:31:39;100962.59;;;13.01;82.04
42125;BME280;27787;44.594;11.046;2023-03-23T00:34:24;100966.13;;;12.95;82.15
42125;BME280;27787;44.594;11.046;2023-03-23T00:37:08;100967.91;;;12.90;82.07
42125;BME280;27787;44.594;11.046;2023-03-23T00:39:53;100964.34;;;12.87;82.42
42125;BME280;27787;44.594;11.046;2023-03-23T00:42:41;100958.19;;;12.82;82.35
42125;BME280;27787;44.594;11.046;2023-03-23T00:45:25;100954.66;;;12.78;82.46
42125;BME280;27787;44.594;11.046;2023-03-23T00:48:09;100950.22;;;12.77;82.58
42125;BME280;27787;44.594;11.046;2023-03-23T00:50:56;100944.03;;;12.78;82.59
42125;BME280;27787;44.594;11.046;2023-03-23T00:53:40;100937.84;;;12.85;81.80
42125;BME280;27787;44.594;11.046;2023-03-23T00:56:24;100935.22;;;12.76;81.52
42125;BME280;27787;44.594;11.046;2023-03-23T00:59:10;100939.63;;;12.66;82.41
42125;BME280;27787;44.594;11.046;2023-03-23T01:01:54;100934.28;;;12.62;82.90
42125;BME280;27787;44.594;11.046;2023-03-23T01:04:39;100924.56;;;12.61;83.28
42125;BME280;27787;44.594;11.046;2023-03-23T01:07:23;100929.88;;;12.61;83.37
42125;BME280;27787;44.594;11.046;2023-03-23T01:10:08;100921.94;;;12.59;83.07
42125;BME280;27787;44.594;11.046;2023-03-23T01:12:52;100913.09;;;12.54;83.19
42125;BME280;27787;44.594;11.046;2023-03-23T01:15:37;100911.34;;;12.52;83.29
42125;BME280;27787;44.594;11.046;2023-03-23T01:18:21;100906.06;;;12.52;83.47
42125;BME280;27787;44.594;11.046;2023-03-23T01:21:08;100903.41;;;12.52;83.35
42125;BME280;27787;44.594;11.046;2023-03-23T01:23:52;100895.47;;;12.52;83.26
42125;BME280;27787;44.594;11.046;2023-03-23T01:26:36;100904.28;;;12.52;82.95
42125;BME280;27787;44.594;11.046;2023-03-23T01:29:21;100901.63;;;12.54;82.16
42125;BME280;27787;44.594;11.046;2023-03-23T01:32:07;100897.22;;;12.54;81.96
42125;BME280;27787;44.594;11.046;2023-03-23T01:34:52;100892.81;;;12.56;81.47
42125;BME280;27787;44.594;11.046;2023-03-23T01:37:36;100894.56;;;12.57;81.40
42125;BME280;27787;44.594;11.046;2023-03-23T01:40:21;100888.38;;;12.58;81.27
42125;BME280;27787;44.594;11.046;2023-03-23T01:43:11;100890.16;;;12.55;81.46
42125;BME280;27787;44.594;11.046;2023-03-23T01:45:58;100891.94;;;12.54;81.69
42125;BME280;27787;44.594;11.046;2023-03-23T01:48:42;100893.69;;;12.55;81.51
42125;BME280;27787;44.594;11.046;2023-03-23T01:51:27;100889.28;;;12.54;81.38
42125;BME280;27787;44.594;11.046;2023-03-23T01:54:14;100890.16;;;12.55;81.12
42125;BME280;27787;44.594;11.046;2023-03-23T01:57:09;100884.88;;;12.56;80.85
42125;BME280;27787;44.594;11.046;2023-03-23T01:59:57;100884.88;;;12.56;80.34
42125;BME280;27787;44.594;11.046;2023-03-23T02:02:48;100883.09;;;12.58;80.66
42125;BME280;27787;44.594;11.046;2023-03-23T02:05:38;100880.44;;;12.58;80.18
42125;BME280;27787;44.594;11.046;2023-03-23T02:08:30;100879.56;;;12.58;80.03
42125;BME280;27787;44.594;11.046;2023-03-23T02:11:20;100881.34;;;12.57;80.06
42125;BME280;27787;44.594;11.046;2023-03-23T02:14:04;100891.03;;;12.54;80.08
42125;BME280;27787;44.594;11.046;2023-03-23T02:19:59;100870.75;;;12.53;80.09
42125;BME280;27787;44.594;11.046;2023-03-23T02:35:36;100876.03;;;12.42;79.95
42125;BME280;27787;44.594;11.046;2023-03-23T02:38:30;100887.50;;;12.39;79.85
42125;BME280;27787;44.594;11.046;2023-03-23T02:41:16;100885.69;;;12.34;79.76
42125;BME280;27787;44.594;11.046;2023-03-23T02:44:03;100884.78;;;12.17;81.19
42125;BME280;27787;44.594;11.046;2023-03-23T02:46:49;100890.88;;;11.87;82.71
42125;BME280;27787;44.594;11.046;2023-03-23T02:49:36;100895.13;;;11.66;84.03
42125;BME280;27787;44.594;11.046;2023-03-23T02:52:24;100888.97;;;11.69;84.79
42125;BME280;27787;44.594;11.046;2023-03-23T02:55:11;100891.66;;;11.76;84.43
42125;BME280;27787;44.594;11.046;2023-03-23T02:57:58;100889.91;;;11.78;84.25
42125;BME280;27787;44.594;11.046;2023-03-23T03:00:48;100894.34;;;11.84;83.29
42125;BME280;27787;44.594;11.046;2023-03-23T03:03:33;100899.69;;;11.92;81.75
42125;BME280;27787;44.594;11.046;2023-03-23T03:06:37;100902.38;;;12.02;80.13
42125;BME280;27787;44.594;11.046;2023-03-23T03:10:01;100900.56;;;11.86;80.38
42125;BME280;27787;44.594;11.046;2023-03-23T03:12:58;100902.22;;;11.72;79.63
42125;BME280;27787;44.594;11.046;2023-03-23T03:15:54;100891.66;;;11.75;79.83
42125;BME280;27787;44.594;11.046;2023-03-23T03:22:09;100885.56;;;11.85;80.29
42125;BME280;27787;44.594;11.046;2023-03-23T03:25:02;100894.34;;;11.84;81.26
42125;BME280;27787;44.594;11.046;2023-03-23T03:27:47;100895.28;;;11.92;80.56
42125;BME280;27787;44.594;11.046;2023-03-23T03:30:45;100896.22;;;12.00;79.31
42125;BME280;27787;44.594;11.046;2023-03-23T03:33:30;100896.19;;;11.99;79.70
42125;BME280;27787;44.594;11.046;2023-03-23T03:36:20;100890.03;;;12.04;79.62
42125;BME280;27787;44.594;11.046;2023-03-23T03:39:07;100899.75;;;12.10;79.09
42125;BME280;27787;44.594;11.046;2023-03-23T03:41:54;100889.19;;;12.15;79.58
42125;BME280;27787;44.594;11.046;2023-03-23T03:44:38;100898.00;;;12.17;79.12
42125;BME280;27787;44.594;11.046;2023-03-23T03:47:22;100899.78;;;12.22;77.32
42125;BME280;27787;44.594;11.046;2023-03-23T03:50:07;100906.00;;;12.32;76.34
42125;BME280;27787;44.594;11.046;2023-03-23T03:52:51;100915.69;;;12.36;75.25
42125;BME280;27787;44.594;11.046;2023-03-23T03:55:36;100913.06;;;12.30;74.74
42125;BME280;27787;44.594;11.046;2023-03-23T03:58:28;100903.31;;;12.14;74.95
42125;BME280;27787;44.594;11.046;2023-03-23T04:01:38;100905.03;;;12.04;74.90
42125;BME280;27787;44.594;11.046;2023-03-23T04:04:22;100905.03;;;11.99;75.08
42125;BME280;27787;44.594;11.046;2023-03-23T04:07:07;100905.91;;;12.00;74.83
42125;BME280;27787;44.594;11.046;2023-03-23T04:09:55;100903.25;;;12.03;74.83
42125;BME280;27787;44.594;11.046;2023-03-23T04:12:39;100905.91;;;12.01;74.61
42125;BME280;27787;44.594;11.046;2023-03-23T04:15:36;100922.66;;;12.03;74.74
42125;BME280;27787;44.594;11.046;2023-03-23T04:18:20;100909.44;;;12.02;75.54
42125;BME280;27787;44.594;11.046;2023-03-23T04:21:06;100919.09;;;11.95;75.69
42125;BME280;27787;44.594;11.046;2023-03-23T04:23:51;100920.84;;;11.92;75.75
42125;BME280;27787;44.594;11.046;2023-03-23T04:26:37;100924.38;;;11.86;75.62
42125;BME280;27787;44.594;11.046;2023-03-23T04:29:32;100933.09;;;11.77;75.96
42125;BME280;27787;44.594;11.046;2023-03-23T04:32:53;100937.50;;;11.74;76.15
42125;BME280;27787;44.594;11.046;2023-03-23T04:35:43;100932.19;;;11.72;76.17
42125;BME280;27787;44.594;11.046;2023-03-23T04:38:51;100938.38;;;11.76;76.55
42125;BME280;27787;44.594;11.046;2023-03-23T04:41:40;100938.44;;;11.79;76.22
42125;BME280;27787;44.594;11.046;2023-03-23T04:44:44;100941.13;;;11.85;75.66
42125;BME280;27787;44.594;11.046;2023-03-23T04:47:38;100940.25;;;11.88;75.15
42125;BME280;27787;44.594;11.046;2023-03-23T04:50:36;100939.38;;;11.90;75.24
42125;BME280;27787;44.594;11.046;2023-03-23T04:53:32;100949.06;;;11.93;74.96
42125;BME280;27787;44.594;11.046;2023-03-23T04:56:17;100949.06;;;11.94;74.33
42125;BME280;27787;44.594;11.046;2023-03-23T04:59:03;100938.47;;;11.91;74.14
42125;BME280;27787;44.594;11.046;2023-03-23T05:01:52;100933.19;;;11.91;74.37
42125;BME280;27787;44.594;11.046;2023-03-23T05:04:39;100936.72;;;11.90;74.22
42125;BME280;27787;44.594;11.046;2023-03-23T05:07:31;100945.53;;;11.91;73.95
42125;BME280;27787;44.594;11.046;2023-03-23T05:10:15;100951.69;;;11.88;74.06
42125;BME280;27787;44.594;11.046;2023-03-23T05:13:00;100949.06;;;11.88;74.14
42125;BME280;27787;44.594;11.046;2023-03-23T05:15:44;100951.69;;;11.87;74.51
42125;BME280;27787;44.594;11.046;2023-03-23T05:18:29;100955.22;;;11.87;74.53
42125;BME280;27787;44.594;11.046;2023-03-23T05:21:13;100955.22;;;11.90;74.10
42125;BME280;27787;44.594;11.046;2023-03-23T05:24:02;100963.19;;;11.95;73.61
42125;BME280;27787;44.594;11.046;2023-03-23T05:26:47;100961.47;;;11.98;73.29
42125;BME280;27787;44.594;11.046;2023-03-23T05:29:37;100971.16;;;11.99;73.37
42125;BME280;27787;44.594;11.046;2023-03-23T05:32:25;100966.75;;;12.00;73.39
42125;BME280;27787;44.594;11.046;2023-03-23T05:35:15;100968.47;;;11.96;73.46
42125;BME280;27787;44.594;11.046;2023-03-23T05:37:59;100975.50;;;11.88;74.14
42125;BME280;27787;44.594;11.046;2023-03-23T05:40:44;100973.66;;;11.78;74.57
42125;BME280;27787;44.594;11.046;2023-03-23T05:43:39;100982.44;;;11.72;74.94
42125;BME280;27787;44.594;11.046;2023-03-23T05:46:26;100990.34;;;11.71;75.60
42125;BME280;27787;44.594;11.046;2023-03-23T05:49:15;100987.75;;;11.78;75.60
42125;BME280;27787;44.594;11.046;2023-03-23T05:52:01;100995.81;;;11.92;76.14
42125;BME280;27787;44.594;11.046;2023-03-23T05:54:45;100988.81;;;12.00;75.03
42125;BME280;27787;44.594;11.046;2023-03-23T05:57:30;100990.59;;;12.07;74.38
42125;BME280;27787;44.594;11.046;2023-03-23T06:00:44;100990.59;;;12.06;74.38
42125;BME280;27787;44.594;11.046;2023-03-23T06:03:37;100992.34;;;12.01;74.60
42125;BME280;27787;44.594;11.046;2023-03-23T06:06:42;101004.63;;;11.94;74.80
42125;BME280;27787;44.594;11.046;2023-03-23T06:09:28;101000.19;;;11.86;75.18
42125;BME280;27787;44.594;11.046;2023-03-23T06:12:22;101003.66;;;11.81;75.31
42125;BME280;27787;44.594;11.046;2023-03-23T06:15:21;101002.81;;;11.84;76.48
42125;BME280;27787;44.594;11.046;2023-03-23T06:18:17;101011.66;;;11.88;75.84
42125;BME280;27787;44.594;11.046;2023-03-23T06:21:17;101017.84;;;11.88;76.13
42125;BME280;27787;44.594;11.046;2023-03-23T06:24:12;101015.22;;;11.94;76.18
42125;BME280;27787;44.594;11.046;2023-03-23T06:26:56;101019.63;;;11.95;75.81
42125;BME280;27787;44.594;11.046;2023-03-23T06:29:40;101019.66;;;11.98;75.64
42125;BME280;27787;44.594;11.046;2023-03-23T06:32:28;101024.06;;;11.99;75.04
42125;BME280;27787;44.594;11.046;2023-03-23T06:35:14;101028.44;;;11.96;75.32
42125;BME280;27787;44.594;11.046;2023-03-23T06:38:17;101031.09;;;11.97;75.75
42125;BME280;27787;44.594;11.046;2023-03-23T06:41:07;101034.66;;;12.02;76.01
42125;BME280;27787;44.594;11.046;2023-03-23T06:43:51;101024.09;;;12.05;76.19
42125;BME280;27787;44.594;11.046;2023-03-23T06:46:41;101025.03;;;12.15;76.47
42125;BME280;27787;44.594;11.046;2023-03-23T06:49:47;101025.97;;;12.26;76.75
42125;BME280;27787;44.594;11.046;2023-03-23T06:52:47;101033.97;;;12.40;77.07
42125;BME280;27787;44.594;11.046;2023-03-23T06:55:31;101028.75;;;12.52;76.79
42125;BME280;27787;44.594;11.046;2023-03-23T06:58:15;101034.97;;;12.66;77.08
42125;BME280;27787;44.594;11.046;2023-03-23T07:01:00;101041.19;;;12.84;76.96
42125;BME280;27787;44.594;11.046;2023-03-23T07:03:52;101041.22;;;13.00;77.35
42125;BME280;27787;44.594;11.046;2023-03-23T07:06:46;101041.22;;;13.13;77.73
42125;BME280;27787;44.594;11.046;2023-03-23T07:09:31;101037.75;;;13.20;78.21
42125;BME280;27787;44.594;11.046;2023-03-23T07:12:16;101048.38;;;13.29;78.01
42125;BME280;27787;44.594;11.046;2023-03-23T07:15:05;101041.28;;;13.34;78.45
42125;BME280;27787;44.594;11.046;2023-03-23T07:17:51;101045.72;;;13.43;78.79
42125;BME280;27787;44.594;11.046;2023-03-23T07:20:47;101041.28;;;13.54;79.22
42125;BME280;27787;44.594;11.046;2023-03-23T07:23:32;101034.22;;;13.62;78.25
42125;BME280;27787;44.594;11.046;2023-03-23T07:26:22;101050.13;;;13.70;78.08
42125;BME280;27787;44.594;11.046;2023-03-23T07:29:11;101041.25;;;13.80;78.18
42125;BME280;27787;44.594;11.046;2023-03-23T07:31:59;101042.16;;;13.86;77.69
42125;BME280;27787;44.594;11.046;2023-03-23T07:34:43;101042.16;;;13.96;77.19
42125;BME280;27787;44.594;11.046;2023-03-23T07:37:35;101051.84;;;14.03;76.34
42125;BME280;27787;44.594;11.046;2023-03-23T07:40:19;101054.50;;;14.10;76.03
42125;BME280;27787;44.594;11.046;2023-03-23T07:43:08;101050.91;;;14.19;75.23
42125;BME280;27787;44.594;11.046;2023-03-23T07:46:18;101050.00;;;14.28;75.63
42125;BME280;27787;44.594;11.046;2023-03-23T07:49:25;101047.34;;;14.37;74.75
42125;BME280;27787;44.594;11.046;2023-03-23T07:52:20;101042.88;;;14.45;74.22
42125;BME280;27787;44.594;11.046;2023-03-23T07:55:06;101045.53;;;14.53;73.93
42125;BME280;27787;44.594;11.046;2023-03-23T07:58:07;101049.06;;;14.59;72.43
42125;BME280;27787;44.594;11.046;2023-03-23T08:00:52;101049.84;;;14.70;70.08
42125;BME280;27787;44.594;11.046;2023-03-23T08:03:38;101048.94;;;14.79;68.08
42125;BME280;27787;44.594;11.046;2023-03-23T08:06:41;101043.59;;;14.88;60.19
42125;BME280;27787;44.594;11.046;2023-03-23T08:09:39;101043.59;;;14.88;59.98
42125;BME280;27787;44.594;11.046;2023-03-23T08:12:43;101037.34;;;14.94;60.08
42125;BME280;27787;44.594;11.046;2023-03-23T08:15:47;101047.06;;;14.99;59.53
42125;BME280;27787;44.594;11.046;2023-03-23T08:18:51;101038.13;;;15.10;59.08
42125;BME280;27787;44.594;11.046;2023-03-23T08:21:52;101042.50;;;15.17;58.23
42125;BME280;27787;44.594;11.046;2023-03-23T08:24:57;101042.47;;;15.21;57.83
42125;BME280;27787;44.594;11.046;2023-03-23T08:27:58;101047.72;;;15.30;58.29
42125;BME280;27787;44.594;11.046;2023-03-23T08:31:08;101045.91;;;15.39;57.46
42125;BME280;27787;44.594;11.046;2023-03-23T08:34:09;101053.84;;;15.43;57.26
42125;BME280;27787;44.594;11.046;2023-03-23T08:37:14;101042.25;;;15.47;56.95
42125;BME280;27787;44.594;11.046;2023-03-23T08:40:34;101038.69;;;15.51;56.65
42125;BME280;27787;44.594;11.046;2023-03-23T08:43:38;101038.66;;;15.54;56.34
42125;BME280;27787;44.594;11.046;2023-03-23T08:46:23;101034.19;;;15.61;56.46
42125;BME280;27787;44.594;11.046;2023-03-23T08:49:28;101033.22;;;15.71;56.74
42125;BME280;27787;44.594;11.046;2023-03-23T08:52:47;101029.59;;;15.80;56.04
42125;BME280;27787;44.594;11.046;2023-03-23T08:55:51;101033.06;;;15.86;55.24
42125;BME280;27787;44.594;11.046;2023-03-23T08:58:55;101037.50;;;15.90;54.86
42125;BME280;27787;44.594;11.046;2023-03-23T09:02:03;101050.72;;;15.97;54.40
42125;BME280;27787;44.594;11.046;2023-03-23T09:05:01;101043.59;;;15.99;54.29
42125;BME280;27787;44.594;11.046;2023-03-23T09:08:09;101040.91;;;16.03;54.03
42125;BME280;27787;44.594;11.046;2023-03-23T09:10:53;101045.31;;;16.06;54.45
42125;BME280;27787;44.594;11.046;2023-03-23T09:13:38;101050.63;;;16.07;53.46
42125;BME280;27787;44.594;11.046;2023-03-23T09:16:22;101047.03;;;16.10;53.85
42125;BME280;27787;44.594;11.046;2023-03-23T09:19:07;101052.28;;;16.19;54.27
42125;BME280;27787;44.594;11.046;2023-03-23T09:21:53;101046.88;;;16.23;54.96
42125;BME280;27787;44.594;11.046;2023-03-23T09:24:37;101046.81;;;16.30;54.51
42125;BME280;27787;44.594;11.046;2023-03-23T09:27:21;101048.50;;;16.37;54.68
42125;BME280;27787;44.594;11.046;2023-03-23T09:30:08;101048.47;;;16.40;53.84
42125;BME280;27787;44.594;11.046;2023-03-23T09:32:55;101047.59;;;16.41;53.39
42125;BME280;27787;44.594;11.046;2023-03-23T09:35:39;101051.97;;;16.45;53.57
42125;BME280;27787;44.594;11.046;2023-03-23T09:38:25;101053.72;;;16.47;53.53
42125;BME280;27787;44.594;11.046;2023-03-23T09:50:22;101047.34;;;16.59;54.76
42125;BME280;27787;44.594;11.046;2023-03-23T09:53:24;101042.84;;;16.67;54.52
42125;BME280;27787;44.594;11.046;2023-03-23T09:56:13;101040.19;;;16.67;53.68
42125;BME280;27787;44.594;11.046;2023-03-23T09:59:20;101041.00;;;16.71;54.11
42125;BME280;27787;44.594;11.046;2023-03-23T10:02:15;101048.88;;;16.78;54.06
42125;BME280;27787;44.594;11.046;2023-03-23T10:05:22;101044.47;;;16.76;53.42
42125;BME280;27787;44.594;11.046;2023-03-23T10:08:12;101043.63;;;16.74;53.18
42125;BME280;27787;44.594;11.046;2023-03-23T10:17:15;101043.38;;;16.91;52.03
42125;BME280;27787;44.594;11.046;2023-03-23T10:22:59;101035.84;;;17.19;53.29
42125;BME280;27787;44.594;11.046;2023-03-23T10:25:54;101034.69;;;17.36;51.77
42125;BME280;27787;44.594;11.046;2023-03-23T10:28:46;101029.22;;;17.44;51.31
42125;BME280;27787;44.594;11.046;2023-03-23T10:31:37;101031.84;;;17.49;50.87
42125;BME280;27787;44.594;11.046;2023-03-23T10:34:35;101025.53;;;17.53;51.43
42125;BME280;27787;44.594;11.046;2023-03-23T10:37:30;101029.56;;;17.78;49.49
42125;BME280;27787;44.594;11.046;2023-03-23T10:40:20;101026.06;;;17.75;50.13
42125;BME280;27787;44.594;11.046;2023-03-23T10:43:08;101039.16;;;17.90;50.70
42125;BME280;27787;44.594;11.046;2023-03-23T10:45:59;101026.75;;;17.86;50.87
42125;BME280;27787;44.594;11.046;2023-03-23T10:48:45;101023.31;;;17.79;50.29
42125;BME280;27787;44.594;11.046;2023-03-23T10:51:36;101019.00;;;17.71;50.01
42125;BME280;27787;44.594;11.046;2023-03-23T10:54:32;101016.38;;;17.69;48.95
42125;BME280;27787;44.594;11.046;2023-03-23T10:57:28;101017.94;;;17.81;45.89
42125;BME280;27787;44.594;11.046;2023-03-23T11:00:21;101013.50;;;17.80;47.13
42125;BME280;27787;44.594;11.046;2023-03-23T11:06:02;101017.66;;;17.96;46.73
42125;BME280;27787;44.594;11.046;2023-03-23T11:08:52;101015.84;;;17.98;48.04
42125;BME280;27787;44.594;11.046;2023-03-23T11:11:40;101011.41;;;17.98;47.33
42125;BME280;27787;44.594;11.046;2023-03-23T11:14:32;101007.75;;;18.03;46.68
42125;BME280;27787;44.594;11.046;2023-03-23T11:17:25;101004.28;;;17.97;47.13
42125;BME280;27787;44.594;11.046;2023-03-23T11:20:12;101012.94;;;18.09;46.74
42125;BME280;27787;44.594;11.046;2023-03-23T11:22:57;101018.03;;;18.24;47.62
42125;BME280;27787;44.594;11.046;2023-03-23T11:26:21;101017.00;;;18.30;47.89
42125;BME280;27787;44.594;11.046;2023-03-23T11:29:21;101010.91;;;18.21;47.88
42125;BME280;27787;44.594;11.046;2023-03-23T11:32:10;101004.00;;;18.13;47.36
42125;BME280;27787;44.594;11.046;2023-03-23T11:35:00;101006.69;;;18.11;51.65
42125;BME280;27787;44.594;11.046;2023-03-23T11:37:58;101006.78;;;18.05;50.77
42125;BME280;27787;44.594;11.046;2023-03-23T11:40:47;101001.38;;;18.08;50.02
42125;BME280;27787;44.594;11.046;2023-03-23T11:43:37;101002.16;;;18.15;49.76
42125;BME280;27787;44.594;11.046;2023-03-23T11:46:29;101001.28;;;18.14;48.49
42125;BME280;27787;44.594;11.046;2023-03-23T11:49:55;100995.31;;;18.02;49.18
42125;BME280;27787;44.594;11.046;2023-03-23T11:59:32;100992.59;;;18.03;51.93
42125;BME280;27787;44.594;11.046;2023-03-23T12:11:59;100976.22;;;18.20;50.10
42125;BME280;27787;44.594;11.046;2023-03-23T12:15:12;100983.22;;;18.27;50.26
42125;BME280;27787;44.594;11.046;2023-03-23T12:18:15;100972.59;;;18.24;50.75
42125;BME280;27787;44.594;11.046;2023-03-23T12:27:46;100969.97;;;18.21;50.50
42125;BME280;27787;44.594;11.046;2023-03-23T12:30:51;100972.63;;;18.21;50.76
42125;BME280;27787;44.594;11.046;2023-03-23T12:33:43;100964.81;;;18.12;51.37
42125;BME280;27787;44.594;11.046;2023-03-23T12:39:50;100960.91;;;18.28;50.78
42125;BME280;27787;44.594;11.046;2023-03-23T12:42:52;100959.16;;;18.27;50.20
42125;BME280;27787;44.594;11.046;2023-03-23T12:48:41;100952.13;;;18.23;48.75
42125;BME280;27787;44.594;11.046;2023-03-23T12:51:32;100951.50;;;18.09;48.95
42125;BME280;27787;44.594;11.046;2023-03-23T12:54:40;100949.75;;;18.08;48.44
42125;BME280;27787;44.594;11.046;2023-03-23T12:57:38;100948.78;;;18.12;49.02
42125;BME280;27787;44.594;11.046;2023-03-23T13:03:23;100947.91;;;18.11;48.58
42125;BME280;27787;44.594;11.046;2023-03-23T13:09:27;100938.31;;;18.01;49.58
42125;BME280;27787;44.594;11.046;2023-03-23T13:12:14;100938.25;;;18.04;50.25
42125;BME280;27787;44.594;11.046;2023-03-23T13:15:31;100932.81;;;18.09;52.53
42125;BME280;27787;44.594;11.046;2023-03-23T13:18:23;100934.22;;;18.26;51.90
42125;BME280;27787;44.594;11.046;2023-03-23T13:21:31;100929.78;;;18.25;52.22
42125;BME280;27787;44.594;11.046;2023-03-23T13:24:20;100930.81;;;18.18;53.37
42125;BME280;27787;44.594;11.046;2023-03-23T13:27:08;100922.69;;;18.24;53.98
42125;BME280;27787;44.594;11.046;2023-03-23T13:29:56;100919.75;;;18.35;54.24
42125;BME280;27787;44.594;11.046;2023-03-23T13:32:41;100915.38;;;18.33;53.62
42125;BME280;27787;44.594;11.046;2023-03-23T13:35:26;100909.06;;;18.35;52.98
42125;BME280;27787;44.594;11.046;2023-03-23T13:41:11;100904.28;;;18.51;51.75
42125;BME280;27787;44.594;11.046;2023-03-23T13:44:26;100905.19;;;18.50;51.55
42125;BME280;27787;44.594;11.046;2023-03-23T13:52:56;100880.84;;;18.64;51.33
42125;BME280;27787;44.594;11.046;2023-03-23T13:55:47;100877.00;;;18.74;50.23
42125;BME280;27787;44.594;11.046;2023-03-23T13:58:32;100870.69;;;18.78;49.62
42125;BME280;27787;44.594;11.046;2023-03-23T14:01:18;100867.75;;;18.87;49.61
42125;BME280;27787;44.594;11.046;2023-03-23T14:04:06;100861.34;;;18.94;49.23
42125;BME280;27787;44.594;11.046;2023-03-23T14:06:51;100850.47;;;19.02;49.27
42125;BME280;27787;44.594;11.046;2023-03-23T14:09:48;100850.16;;;19.12;49.27
42125;BME280;27787;44.594;11.046;2023-03-23T14:12:32;100850.81;;;19.22;49.68
42125;BME280;27787;44.594;11.046;2023-03-23T14:15:18;100848.75;;;19.32;50.09
42125;BME280;27787;44.594;11.046;2023-03-23T14:18:03;100843.94;;;19.44;49.56
42125;BME280;27787;44.594;11.046;2023-03-23T14:20:48;100847.28;;;19.53;49.45
42125;BME280;27787;44.594;11.046;2023-03-23T14:23:33;100843.41;;;19.64;49.12
42125;BME280;27787;44.594;11.046;2023-03-23T14:26:20;100845.72;;;19.77;48.53
42125;BME280;27787;44.594;11.046;2023-03-23T14:29:05;100845.66;;;19.80;48.78
42125;BME280;27787;44.594;11.046;2023-03-23T14:31:55;100837.34;;;19.89;48.65
42125;BME280;27787;44.594;11.046;2023-03-23T14:34:40;100835.47;;;19.91;48.35
42125;BME280;27787;44.594;11.046;2023-03-23T14:37:25;100839.59;;;20.02;48.05
42125;BME280;27787;44.594;11.046;2023-03-23T14:40:15;100834.75;;;20.15;48.05
42125;BME280;27787;44.594;11.046;2023-03-23T14:42:59;100834.56;;;20.21;47.91
42125;BME280;27787;44.594;11.046;2023-03-23T14:45:47;100835.28;;;20.26;47.22
42125;BME280;27787;44.594;11.046;2023-03-23T14:48:34;100837.88;;;20.29;47.35
42125;BME280;27787;44.594;11.046;2023-03-23T14:51:19;100834.25;;;20.32;47.11
42125;BME280;27787;44.594;11.046;2023-03-23T14:54:07;100838.91;;;20.25;47.52
42125;BME280;27787;44.594;11.046;2023-03-23T14:56:52;100832.56;;;20.28;47.11
42125;BME280;27787;44.594;11.046;2023-03-23T14:59:40;100829.47;;;20.40;47.51
42125;BME280;27787;44.594;11.046;2023-03-23T15:02:37;100836.94;;;20.60;47.24
42125;BME280;27787;44.594;11.046;2023-03-23T15:05:28;100833.00;;;20.70;46.98
42125;BME280;27787;44.594;11.046;2023-03-23T15:08:21;100827.19;;;20.84;46.74
42125;BME280;27787;44.594;11.046;2023-03-23T15:14:10;100824.63;;;21.06;46.47
42125;BME280;27787;44.594;11.046;2023-03-23T15:16:59;100824.31;;;21.15;45.85
42125;BME280;27787;44.594;11.046;2023-03-23T15:19:45;100820.59;;;21.19;45.37
42125;BME280;27787;44.594;11.046;2023-03-23T15:22:31;100824.06;;;21.23;45.49
42125;BME280;27787;44.594;11.046;2023-03-23T15:25:21;100819.38;;;21.29;45.36
42125;BME280;27787;44.594;11.046;2023-03-23T15:28:39;100816.44;;;21.35;45.23
42125;BME280;27787;44.594;11.046;2023-03-23T15:31:24;100812.84;;;21.36;44.72
42125;BME280;27787;44.594;11.046;2023-03-23T15:34:32;100814.13;;;21.25;45.18
42125;BME280;27787;44.594;11.046;2023-03-23T15:37:27;100820.69;;;21.16;44.96
42125;BME280;27787;44.594;11.046;2023-03-23T15:40:37;100818.19;;;21.11;44.91
42125;BME280;27787;44.594;11.046;2023-03-23T15:43:34;100815.22;;;21.19;45.20
42125;BME280;27787;44.594;11.046;2023-03-23T15:46:21;100808.75;;;21.26;45.10
42125;BME280;27787;44.594;11.046;2023-03-23T15:49:11;100800.72;;;21.25;44.82
42125;BME280;27787;44.594;11.046;2023-03-23T15:51:55;100811.59;;;21.20;44.77
42125;BME280;27787;44.594;11.046;2023-03-23T15:54:46;100808.22;;;21.15;44.70
42125;BME280;27787;44.594;11.046;2023-03-23T15:57:30;100813.84;;;21.07;44.95
42125;BME280;27787;44.594;11.046;2023-03-23T16:00:14;100811.22;;;21.06;44.97
42125;BME280;27787;44.594;11.046;2023-03-23T16:03:01;100807.59;;;21.07;44.81
42125;BME280;27787;44.594;11.046;2023-03-23T16:05:48;100803.09;;;21.07;44.64
42125;BME280;27787;44.594;11.046;2023-03-23T16:08:32;100799.53;;;21.07;44.69
42125;BME280;27787;44.594;11.046;2023-03-23T16:11:17;100795.97;;;21.06;44.87